createdAt,value
2018-07-20T00:00:24.673Z,75.90
2018-07-20T00:02:54.431Z,76.80
2018-07-20T00:05:25.580Z,76.20
2018-07-20T00:07:55.339Z,77.20
2018-07-20T00:10:24.698Z,76.80
2018-07-20T00:12:56.274Z,77.50
2018-07-20T00:15:26.331Z,77.90
2018-07-20T00:17:56.219Z,78.00
2018-07-20T00:20:26.342Z,78.90
2018-07-20T00:22:56.911Z,79.30
2018-07-20T00:25:26.938Z,80.00
2018-07-20T00:27:56.516Z,81.10
2018-07-20T00:30:25.755Z,80.00
2018-07-20T00:32:56.099Z,80.70
2018-07-20T00:35:25.647Z,80.60
2018-07-20T00:37:55.632Z,81.70
2018-07-20T00:40:25.579Z,82.30
2018-07-20T00:45:23.530Z,83.50
2018-07-20T00:47:52.960Z,83.40
2018-07-20T00:50:22.707Z,84.20
2018-07-20T00:52:53.330Z,84.00
2018-07-20T00:55:24.774Z,84.10
2018-07-20T00:57:54.959Z,84.80
2018-07-20T01:00:24.198Z,85.90
2018-07-20T01:02:53.454Z,85.90
2018-07-20T01:05:23.255Z,86.10
2018-07-20T01:10:23.227Z,86.40
2018-07-20T01:12:53.325Z,86.40
2018-07-20T01:15:23.282Z,87.10
2018-07-20T01:17:53.118Z,87.70
2018-07-20T01:20:23.486Z,88.30
2018-07-20T01:22:54.446Z,87.30
2018-07-20T01:25:24.390Z,87.30
2018-07-20T01:27:54.918Z,87.50
2018-07-20T01:30:25.321Z,88.90
2018-07-20T01:32:55.342Z,88.70
2018-07-20T01:35:26.654Z,88.90
2018-07-20T01:37:56.561Z,90.00
2018-07-20T01:40:27.517Z,90.40
2018-07-20T01:42:57.493Z,90.10
2018-07-20T01:45:26.945Z,90.00
2018-07-20T01:47:57.371Z,90.10
2018-07-20T01:50:27.028Z,90.50
2018-07-20T01:52:56.970Z,90.80
2018-07-20T01:55:27.354Z,90.80
2018-07-20T01:57:57.651Z,91.00
2018-07-20T02:00:27.777Z,91.40
2018-07-20T02:02:58.149Z,91.20
2018-07-20T02:05:28.010Z,91.10
2018-07-20T02:07:57.902Z,91.20
2018-07-20T02:10:28.315Z,91.20
2018-07-20T02:12:57.722Z,91.10
2018-07-20T02:15:28.089Z,91.50
2018-07-20T02:17:58.429Z,92.30
2018-07-20T02:20:28.438Z,92.10
2018-07-20T02:22:58.355Z,92.50
2018-07-20T02:25:28.238Z,92.30
2018-07-20T02:27:58.562Z,92.30
2018-07-20T02:30:29.263Z,92.40
2018-07-20T02:32:59.135Z,92.40
2018-07-20T02:35:28.591Z,92.70
2018-07-20T02:37:59.341Z,92.70
2018-07-20T02:40:29.671Z,93.00
2018-07-20T02:43:00.928Z,93.50
2018-07-20T02:45:31.255Z,93.50
2018-07-20T02:48:02.188Z,93.60
2018-07-20T02:50:32.603Z,93.80
2018-07-20T02:53:02.597Z,93.80
2018-07-20T02:55:32.619Z,94.20
2018-07-20T02:58:02.911Z,94.00
2018-07-20T03:00:33.083Z,94.00
2018-07-20T03:03:02.574Z,94.50
2018-07-20T03:05:32.777Z,93.80
2018-07-20T03:08:02.502Z,94.10
2018-07-20T03:10:33.570Z,94.50
2018-07-20T03:15:33.980Z,95.00
2018-07-20T03:18:03.562Z,94.60
2018-07-20T03:20:32.737Z,95.00
2018-07-20T03:23:02.323Z,95.40
2018-07-20T03:25:32.474Z,95.00
2018-07-20T03:28:03.167Z,95.10
2018-07-20T03:30:33.121Z,95.10
2018-07-20T03:33:03.390Z,95.50
2018-07-20T03:38:02.487Z,95.20
2018-07-20T03:40:33.324Z,95.70
2018-07-20T03:43:04.218Z,95.90
2018-07-20T03:45:33.738Z,95.40
2018-07-20T03:48:04.017Z,95.70
2018-07-20T03:50:34.527Z,95.50
2018-07-20T03:53:04.451Z,95.70
2018-07-20T03:55:34.939Z,96.50
2018-07-20T03:58:05.295Z,96.30
2018-07-20T04:00:34.934Z,95.80
2018-07-20T04:03:04.647Z,95.90
2018-07-20T04:05:34.735Z,96.40
2018-07-20T04:08:03.862Z,96.30
2018-07-20T04:10:33.282Z,96.60
2018-07-20T04:13:03.453Z,96.40
2018-07-20T04:15:33.743Z,96.60
2018-07-20T04:18:02.863Z,96.10
2018-07-20T04:20:33.274Z,96.80
2018-07-20T04:23:02.540Z,97.10
2018-07-20T04:25:32.442Z,96.60
2018-07-20T04:28:04.015Z,96.90
2018-07-20T04:30:33.798Z,97.00
2018-07-20T04:33:03.332Z,97.10
2018-07-20T04:35:33.518Z,96.70
2018-07-20T04:38:03.464Z,97.10
2018-07-20T04:40:33.382Z,97.20
2018-07-20T04:43:02.565Z,97.10
2018-07-20T04:45:33.222Z,96.90
2018-07-20T04:48:03.614Z,96.80
2018-07-20T04:55:32.882Z,97.30
2018-07-20T04:58:02.571Z,97.90
2018-07-20T05:00:32.279Z,97.50
2018-07-20T05:03:02.694Z,97.40
2018-07-20T05:05:33.450Z,97.60
2018-07-20T05:08:02.587Z,97.00
2018-07-20T05:10:31.462Z,96.90
2018-07-20T05:15:30.465Z,97.30
2018-07-20T05:18:02.520Z,97.00
2018-07-20T05:20:32.159Z,96.60
2018-07-20T05:23:01.479Z,96.90
2018-07-20T05:25:30.886Z,97.00
2018-07-20T05:28:00.299Z,97.30
2018-07-20T05:30:31.021Z,97.90
2018-07-20T05:33:00.589Z,98.00
2018-07-20T05:35:30.339Z,98.40
2018-07-20T05:38:00.286Z,98.10
2018-07-20T05:40:30.277Z,98.40
2018-07-20T05:42:59.840Z,98.60
2018-07-20T05:45:30.424Z,98.10
2018-07-20T05:48:01.874Z,98.40
2018-07-20T05:50:32.090Z,98.20
2018-07-20T05:53:02.458Z,98.20
2018-07-20T05:55:32.674Z,97.70
2018-07-20T05:58:02.670Z,98.00
2018-07-20T06:00:32.547Z,96.40
2018-07-20T06:03:03.369Z,96.20
2018-07-20T06:08:03.326Z,96.50
2018-07-20T06:10:33.626Z,96.90
2018-07-20T06:13:03.707Z,95.60
2018-07-20T06:15:34.255Z,95.90
2018-07-20T06:18:04.959Z,95.60
2018-07-20T06:20:35.270Z,95.70
2018-07-20T06:23:04.906Z,96.00
2018-07-20T06:25:35.350Z,95.50
2018-07-20T06:28:06.603Z,95.30
2018-07-20T06:30:36.563Z,94.60
2018-07-20T06:33:07.350Z,94.20
2018-07-20T06:35:37.600Z,93.20
2018-07-20T06:38:07.495Z,93.60
2018-07-20T06:40:37.482Z,91.70
2018-07-20T06:43:07.371Z,92.00
2018-07-20T06:45:37.195Z,92.60
2018-07-20T06:48:06.755Z,93.60
2018-07-20T06:50:36.423Z,91.50
2018-07-20T06:53:06.265Z,91.70
2018-07-20T06:55:36.710Z,92.20
2018-07-20T06:58:07.492Z,91.00
2018-07-20T07:00:38.827Z,91.20
2018-07-20T07:03:09.557Z,91.20
2018-07-20T07:05:40.383Z,91.20
2018-07-20T07:08:10.266Z,90.40
2018-07-20T07:10:40.148Z,90.80
2018-07-20T07:13:09.603Z,89.80
2018-07-20T07:15:39.045Z,88.40
2018-07-20T07:18:08.480Z,89.30
2018-07-20T07:20:38.311Z,88.60
2018-07-20T07:23:09.403Z,88.20
2018-07-20T07:25:39.097Z,87.90
2018-07-20T07:28:09.284Z,87.30
2018-07-20T07:30:40.192Z,88.10
2018-07-20T07:33:10.654Z,89.50
2018-07-20T07:38:09.883Z,85.40
2018-07-20T07:40:39.395Z,85.70
2018-07-20T07:43:09.335Z,86.50
2018-07-20T07:45:40.189Z,86.70
2018-07-20T07:48:11.643Z,86.80
2018-07-20T07:50:41.666Z,85.90
2018-07-20T07:53:12.137Z,85.90
2018-07-20T07:55:41.794Z,84.40
2018-07-20T07:58:10.826Z,84.00
2018-07-20T08:00:40.014Z,84.60
2018-07-20T08:03:10.484Z,83.90
2018-07-20T08:05:40.054Z,83.70
2018-07-20T08:08:10.194Z,85.50
2018-07-20T08:10:39.964Z,83.50
2018-07-20T08:13:09.847Z,84.20
2018-07-20T08:15:40.205Z,83.30
2018-07-20T08:18:11.158Z,81.80
2018-07-20T08:20:41.874Z,81.90
2018-07-20T08:28:10.574Z,79.20
2018-07-20T08:30:40.391Z,77.50
2018-07-20T08:33:11.403Z,77.50
2018-07-20T08:35:41.394Z,78.20
2018-07-20T08:38:10.574Z,78.20
2018-07-20T08:40:41.173Z,78.10
2018-07-20T08:43:11.787Z,79.20
2018-07-20T08:45:41.646Z,78.00
2018-07-20T08:48:11.367Z,77.20
2018-07-20T08:50:41.803Z,75.20
2018-07-20T08:53:12.467Z,76.00
2018-07-20T08:55:42.399Z,74.70
2018-07-20T08:58:15.890Z,73.00
2018-07-20T09:00:45.385Z,72.50
2018-07-20T09:05:46.262Z,71.70
2018-07-20T09:08:16.109Z,72.50
2018-07-20T09:10:46.355Z,71.00
2018-07-20T09:13:16.181Z,71.50
2018-07-20T09:15:47.806Z,71.50
2018-07-20T09:18:18.415Z,70.20
2018-07-20T09:20:48.542Z,68.80
2018-07-20T09:23:18.214Z,69.20
2018-07-20T09:25:47.789Z,67.00
2018-07-20T09:28:19.422Z,67.70
2018-07-20T09:30:49.511Z,67.50
2018-07-20T09:33:20.327Z,65.70
2018-07-20T09:35:50.524Z,66.60
2018-07-20T09:38:24.795Z,64.50
2018-07-20T09:40:54.431Z,65.10
2018-07-20T09:43:24.667Z,65.70
2018-07-20T09:45:54.549Z,67.20
2018-07-20T09:48:25.401Z,65.90
2018-07-20T09:50:55.467Z,64.90
2018-07-20T09:53:26.447Z,64.60
2018-07-20T09:55:56.831Z,65.50
2018-07-20T09:58:27.594Z,65.20
2018-07-20T10:00:57.704Z,64.00
2018-07-20T10:03:28.426Z,64.90
2018-07-20T10:05:59.154Z,64.50
2018-07-20T10:08:28.639Z,65.30
2018-07-20T10:10:58.401Z,65.70
2018-07-20T10:13:29.110Z,62.60
2018-07-20T10:15:59.578Z,62.20
2018-07-20T10:18:28.841Z,63.00
2018-07-20T10:20:59.110Z,63.60
2018-07-20T10:23:29.487Z,61.90
2018-07-20T10:25:59.354Z,63.00
2018-07-20T10:28:29.134Z,63.20
2018-07-20T10:30:59.357Z,61.20
2018-07-20T10:33:29.124Z,61.10
2018-07-20T10:35:58.794Z,62.00
2018-07-20T10:38:30.063Z,62.80
2018-07-20T10:40:59.747Z,63.70
2018-07-20T10:43:29.570Z,62.00
2018-07-20T10:45:59.805Z,60.40
2018-07-20T10:48:29.683Z,60.80
2018-07-20T10:51:00.358Z,61.30
2018-07-20T10:53:29.805Z,60.50
2018-07-20T10:55:59.332Z,62.20
2018-07-20T10:58:29.672Z,61.20
2018-07-20T11:00:59.621Z,61.20
2018-07-20T11:03:30.919Z,59.80
2018-07-20T11:06:01.381Z,59.10
2018-07-20T11:08:31.534Z,58.40
2018-07-20T11:11:01.439Z,58.80
2018-07-20T11:13:31.510Z,58.10
2018-07-20T11:16:01.582Z,58.50
2018-07-20T11:18:31.418Z,58.70
2018-07-20T11:21:00.569Z,59.10
2018-07-20T11:23:29.812Z,59.10
2018-07-20T11:25:59.709Z,57.70
2018-07-20T11:28:29.593Z,58.50
2018-07-20T11:31:00.863Z,58.20
2018-07-20T11:33:30.555Z,57.50
2018-07-20T11:36:00.674Z,58.10
2018-07-20T11:38:30.226Z,56.90
2018-07-20T11:41:00.229Z,57.50
2018-07-20T11:43:30.422Z,57.30
2018-07-20T11:46:00.647Z,58.10
2018-07-20T11:48:29.858Z,58.30
2018-07-20T11:50:59.370Z,58.30
2018-07-20T11:53:29.787Z,59.40
2018-07-20T11:56:00.439Z,57.40
2018-07-20T11:58:30.389Z,57.10
2018-07-20T12:01:00.071Z,55.50
2018-07-20T12:03:30.518Z,56.40
2018-07-20T12:06:00.506Z,55.60
2018-07-20T12:08:30.629Z,55.30
2018-07-20T12:11:00.063Z,55.50
2018-07-20T12:13:29.391Z,55.90
2018-07-20T12:15:59.468Z,54.60
2018-07-20T12:18:29.352Z,54.70
2018-07-20T12:20:59.275Z,53.30
2018-07-20T12:23:29.322Z,54.20
2018-07-20T12:25:58.497Z,53.80
2018-07-20T12:28:28.098Z,52.50
2018-07-20T12:30:57.791Z,52.30
2018-07-20T12:33:27.130Z,53.30
2018-07-20T12:35:56.554Z,51.40
2018-07-20T12:38:27.154Z,51.20
2018-07-20T12:40:57.161Z,52.00
2018-07-20T12:43:26.390Z,52.20
2018-07-20T12:45:56.297Z,51.40
2018-07-20T12:48:30.971Z,53.70
2018-07-20T12:51:00.451Z,51.40
2018-07-20T12:53:30.345Z,51.40
2018-07-20T12:56:01.052Z,53.10
2018-07-20T12:58:31.191Z,53.70
2018-07-20T13:01:02.650Z,51.70
2018-07-20T13:03:32.351Z,52.80
2018-07-20T13:06:02.169Z,53.20
2018-07-20T13:08:31.469Z,51.60
2018-07-20T13:11:02.439Z,51.60
2018-07-20T13:13:33.788Z,49.30
2018-07-20T13:16:04.138Z,50.00
2018-07-20T13:18:34.497Z,48.20
2018-07-20T13:21:04.589Z,48.80
2018-07-20T13:23:34.473Z,50.50
2018-07-20T13:26:05.087Z,48.60
2018-07-20T13:28:37.202Z,48.00
2018-07-20T13:31:07.322Z,48.40
2018-07-20T13:33:37.348Z,49.30
2018-07-20T13:36:09.217Z,47.50
2018-07-20T13:38:39.346Z,48.80
2018-07-20T13:41:09.471Z,47.30
2018-07-20T13:43:40.438Z,49.20
2018-07-20T13:46:10.890Z,47.70
2018-07-20T13:48:40.150Z,46.90
2018-07-20T13:51:10.528Z,46.80
2018-07-20T13:53:39.686Z,48.00
2018-07-20T13:56:09.174Z,46.00
2018-07-20T13:58:39.184Z,45.70
2018-07-20T14:01:08.762Z,47.20
2018-07-20T14:03:38.363Z,48.00
2018-07-20T14:06:07.751Z,46.10
2018-07-20T14:08:39.158Z,46.00
2018-07-20T14:13:37.498Z,46.00
2018-07-20T14:16:07.459Z,46.10
2018-07-20T14:18:37.383Z,45.30
2018-07-20T14:21:07.951Z,43.80
2018-07-20T14:23:37.932Z,44.30
2018-07-20T14:26:07.050Z,44.60
2018-07-20T14:28:37.879Z,43.30
2018-07-20T14:31:08.414Z,43.10
2018-07-20T14:33:38.421Z,44.90
2018-07-20T14:36:09.210Z,43.20
2018-07-20T14:38:39.498Z,43.60
2018-07-20T14:43:39.311Z,42.90
2018-07-20T14:46:09.115Z,43.50
2018-07-20T14:48:39.496Z,42.90
2018-07-20T14:51:08.727Z,42.00
2018-07-20T14:53:38.294Z,42.50
2018-07-20T14:56:09.010Z,41.40
2018-07-20T14:58:40.247Z,42.30
2018-07-20T15:01:11.212Z,42.00
2018-07-20T15:03:42.476Z,42.30
2018-07-20T15:06:12.755Z,41.30
2018-07-20T15:08:45.350Z,42.10
2018-07-20T15:11:16.523Z,43.50
2018-07-20T15:13:46.270Z,41.30
2018-07-20T15:16:16.297Z,38.70
2018-07-20T15:18:45.821Z,39.30
2018-07-20T15:21:16.024Z,39.40
2018-07-20T15:23:47.143Z,40.00
2018-07-20T15:26:17.881Z,39.50
2018-07-20T15:28:48.252Z,39.50
2018-07-20T15:31:18.158Z,39.80
2018-07-20T15:33:48.779Z,38.40
2018-07-20T15:36:18.355Z,39.10
2018-07-20T15:38:49.074Z,39.80
2018-07-20T15:41:19.901Z,37.30
2018-07-20T15:43:49.978Z,38.00
2018-07-20T15:46:19.203Z,37.40
2018-07-20T15:48:49.162Z,36.90
2018-07-20T15:51:19.058Z,36.60
2018-07-20T15:53:49.482Z,37.20
2018-07-20T15:56:19.324Z,35.20
2018-07-20T15:58:49.074Z,35.90
2018-07-20T16:01:19.058Z,35.30
2018-07-20T16:03:49.637Z,35.70
2018-07-20T16:06:20.402Z,36.20
2018-07-20T16:08:50.915Z,34.80
2018-07-20T16:11:20.172Z,36.00
2018-07-20T16:13:50.990Z,35.50
2018-07-20T16:18:50.120Z,34.50
2018-07-20T16:21:20.646Z,35.00
2018-07-20T16:23:52.051Z,35.50
2018-07-20T16:26:22.333Z,34.70
2018-07-20T16:28:51.423Z,35.20
2018-07-20T16:31:21.277Z,35.40
2018-07-20T16:33:50.383Z,36.20
2018-07-20T16:36:19.874Z,34.60
2018-07-20T16:38:50.062Z,35.10
2018-07-20T16:41:20.567Z,35.70
2018-07-20T16:43:50.941Z,35.40
2018-07-20T16:46:21.634Z,36.00
2018-07-20T16:48:51.665Z,36.10
2018-07-20T16:51:22.855Z,37.00
2018-07-20T16:53:53.418Z,35.70
2018-07-20T16:56:23.090Z,36.90
2018-07-20T16:58:54.303Z,37.10
2018-07-20T17:01:24.430Z,36.80
2018-07-20T17:03:54.250Z,37.20
2018-07-20T17:06:24.291Z,37.10
2018-07-20T17:08:54.492Z,37.70
2018-07-20T17:11:24.994Z,37.90
2018-07-20T17:13:56.349Z,38.60
2018-07-20T17:16:25.482Z,38.50
2018-07-20T17:18:55.489Z,38.70
2018-07-20T17:21:25.477Z,39.20
2018-07-20T17:23:55.610Z,39.60
2018-07-20T17:26:25.143Z,40.00
2018-07-20T17:28:56.173Z,40.50
2018-07-20T17:31:27.690Z,40.40
2018-07-20T17:33:57.506Z,41.00
2018-07-20T17:36:27.807Z,41.50
2018-07-20T17:38:57.455Z,42.00
2018-07-20T17:41:27.587Z,42.70
2018-07-20T17:43:56.969Z,43.70
2018-07-20T17:46:26.962Z,43.60
2018-07-20T17:48:57.219Z,45.10
2018-07-20T17:51:27.527Z,43.60
2018-07-20T17:53:59.173Z,44.00
2018-07-20T17:56:29.283Z,44.00
2018-07-20T17:58:58.814Z,44.10
2018-07-20T18:01:28.414Z,44.50
2018-07-20T18:03:58.720Z,44.50
2018-07-20T18:06:28.363Z,44.40
2018-07-20T18:08:59.103Z,45.00
2018-07-20T18:11:29.414Z,45.10
2018-07-20T18:14:00.314Z,45.20
2018-07-20T18:16:30.645Z,45.60
2018-07-20T18:19:00.726Z,46.20
2018-07-20T18:21:30.686Z,46.80
2018-07-20T18:24:01.234Z,46.10
2018-07-20T18:26:31.486Z,46.70
2018-07-20T18:29:01.323Z,46.80
2018-07-20T18:31:30.781Z,47.20
2018-07-20T18:34:00.971Z,47.50
2018-07-20T18:36:31.373Z,47.70
2018-07-20T18:39:01.882Z,47.30
2018-07-20T18:41:31.677Z,47.90
2018-07-20T18:44:02.079Z,47.60
2018-07-20T18:46:32.212Z,47.90
2018-07-20T18:49:02.787Z,48.20
2018-07-20T18:51:34.122Z,48.50
2018-07-20T18:54:04.956Z,48.70
2018-07-20T18:56:35.166Z,49.30
2018-07-20T18:59:06.070Z,51.00
2018-07-20T19:01:36.610Z,50.00
2018-07-20T19:04:06.578Z,50.50
2018-07-20T19:06:36.766Z,50.30
2018-07-20T19:09:10.347Z,50.70
2018-07-20T19:11:40.609Z,51.40
2018-07-20T19:14:12.170Z,52.00
2018-07-20T19:16:42.141Z,51.70
2018-07-20T19:19:12.030Z,52.30
2018-07-20T19:21:42.871Z,52.10
2018-07-20T19:24:12.408Z,51.80
2018-07-20T19:26:42.037Z,51.80
2018-07-20T19:29:15.332Z,52.30
2018-07-20T19:31:45.012Z,52.90
2018-07-20T19:34:15.249Z,52.40
2018-07-20T19:36:46.317Z,52.60
2018-07-20T19:39:15.810Z,52.80
2018-07-20T19:41:46.112Z,52.60
2018-07-20T19:44:16.499Z,52.70
2018-07-20T19:46:47.133Z,52.40
2018-07-20T19:49:16.912Z,51.80
2018-07-20T19:51:46.966Z,52.40
2018-07-20T19:54:18.341Z,52.30
2018-07-20T19:56:48.411Z,51.70
2018-07-20T19:59:17.711Z,52.20
2018-07-20T20:01:48.206Z,52.30
2018-07-20T20:04:18.244Z,52.10
2018-07-20T20:06:47.361Z,52.70
2018-07-20T20:09:17.038Z,52.50
2018-07-20T20:11:47.120Z,53.10
2018-07-20T20:14:17.506Z,52.50
2018-07-20T20:19:16.426Z,53.30
2018-07-20T20:21:46.129Z,53.30
2018-07-20T20:24:17.323Z,52.50
2018-07-20T20:26:47.254Z,52.30
2018-07-20T20:29:17.209Z,52.80
2018-07-20T20:31:49.001Z,53.60
2018-07-20T20:34:19.670Z,51.80
2018-07-20T20:36:49.305Z,52.60
2018-07-20T20:39:18.762Z,53.00
2018-07-20T20:41:50.050Z,52.10
2018-07-20T20:44:19.935Z,52.20
2018-07-20T20:46:49.555Z,53.70
2018-07-20T20:49:20.062Z,52.60
2018-07-20T20:51:50.268Z,53.10
2018-07-20T20:54:20.273Z,53.50
2018-07-20T20:56:50.142Z,54.70
2018-07-20T20:59:19.945Z,57.40
2018-07-20T21:01:51.040Z,55.80
2018-07-20T21:04:20.976Z,55.10
2018-07-20T21:06:51.230Z,55.70
2018-07-20T21:11:50.399Z,54.50
2018-07-20T21:14:20.058Z,54.90
2018-07-20T21:16:50.078Z,55.50
2018-07-20T21:19:21.041Z,56.30
2018-07-20T21:21:51.458Z,55.80
2018-07-20T21:24:20.570Z,56.60
2018-07-20T21:26:50.590Z,56.80
2018-07-20T21:29:20.297Z,56.80
2018-07-20T21:31:51.203Z,57.00
2018-07-20T21:34:21.146Z,57.50
2018-07-20T21:36:51.022Z,57.80
2018-07-20T21:39:21.331Z,58.10
2018-07-20T21:41:50.666Z,58.10
2018-07-20T21:44:21.827Z,58.60
2018-07-20T21:46:52.524Z,59.00
2018-07-20T21:49:23.063Z,59.00
2018-07-20T21:51:53.427Z,60.30
2018-07-20T21:54:24.238Z,59.80
2018-07-20T21:56:53.694Z,60.50
2018-07-20T21:59:23.250Z,60.80
2018-07-20T22:01:52.998Z,61.50
2018-07-20T22:04:23.255Z,61.50
2018-07-20T22:06:53.998Z,62.30
2018-07-20T22:09:23.763Z,62.50
2018-07-20T22:11:52.874Z,63.40
2018-07-20T22:14:23.046Z,62.20
2018-07-20T22:16:53.483Z,62.90
2018-07-20T22:19:23.070Z,62.10
2018-07-20T22:21:53.432Z,62.90
2018-07-20T22:24:23.411Z,63.10
2018-07-20T22:26:54.027Z,63.60
2018-07-20T22:29:23.278Z,63.80
2018-07-20T22:31:53.131Z,64.70
2018-07-20T22:34:24.558Z,64.40
2018-07-20T22:39:23.957Z,65.70
2018-07-20T22:44:24.553Z,67.00
2018-07-20T22:46:55.759Z,67.10
2018-07-20T22:49:26.227Z,67.90
2018-07-20T22:51:56.446Z,68.30
2018-07-20T22:54:26.068Z,68.80
2018-07-20T22:56:56.830Z,69.00
2018-07-20T22:59:27.803Z,69.20
2018-07-20T23:01:58.989Z,70.70
2018-07-20T23:04:28.623Z,69.80
2018-07-20T23:06:58.902Z,70.00
2018-07-20T23:09:29.113Z,70.80
2018-07-20T23:11:58.630Z,70.40
2018-07-20T23:14:30.216Z,71.00
2018-07-20T23:16:59.785Z,71.00
2018-07-20T23:19:30.191Z,71.80
2018-07-20T23:22:00.057Z,71.90
2018-07-20T23:24:30.817Z,72.30
2018-07-20T23:27:01.235Z,73.10
2018-07-20T23:29:32.016Z,73.20
2018-07-20T23:32:01.453Z,73.30
2018-07-20T23:34:31.383Z,74.00
2018-07-20T23:37:01.694Z,74.00
2018-07-20T23:39:32.416Z,74.70
2018-07-20T23:42:02.915Z,75.30
2018-07-20T23:44:32.774Z,75.00
2018-07-20T23:47:03.109Z,75.80
2018-07-20T23:49:33.726Z,75.20
2018-07-20T23:52:04.747Z,76.40
2018-07-20T23:54:34.866Z,76.20
2018-07-20T23:57:04.317Z,76.90
2018-07-20T23:59:34.141Z,77.10
